Time;durP1;ratioP1;P1;durP2;ratioP2;P2;SDS_P1;SDS_P2;PMS_P1;PMS_P2;Temp;Humidity;BMP_temperature;BMP_pressure;BME280_temperature;BME280_humidity;BME280_pressure;Samples;Min_cycle;Max_cycle;Signal;HPM_P1;HPM_P2
2022/01/04 00:00:13;;;;;;;3.05;1.58;;;15.70;60.40;;;;;;5052727;28;20486;-74
2022/01/04 00:02:40;;;;;;;4.45;1.80;;;15.80;67.30;;;;;;5052468;28;20527;-75
2022/01/04 00:05:07;;;;;;;5.18;1.55;;;15.60;67.30;;;;;;5053233;28;20167;-75
2022/01/04 00:07:36;;;;;;;5.05;1.85;;;15.70;67.50;;;;;;5053249;28;20088;-75
2022/01/04 00:10:07;;;;;;;3.80;1.70;;;15.60;60.40;;;;;;5052900;28;20063;-74
2022/01/04 00:15:18;;;;;;;3.45;1.75;;;15.60;67.40;;;;;;5058380;28;20053;-74
2022/01/04 00:17:45;;;;;;;2.85;1.52;;;15.70;67.70;;;;;;5032903;28;20487;-74
2022/01/04 00:20:12;;;;;;;3.83;1.80;;;16.20;65.30;;;;;;5041146;28;20135;-74
2022/01/04 00:22:39;;;;;;;4.25;1.60;;;15.30;67.60;;;;;;5047950;28;20088;-74
2022/01/04 00:25:08;;;;;;;3.13;1.52;;;15.60;60.50;;;;;;5032665;28;20128;-74
2022/01/04 00:27:35;;;;;;;2.33;1.30;;;15.60;67.50;;;;;;5032820;28;20470;-74
2022/01/04 00:30:01;;;;;;;3.08;1.50;;;15.60;67.80;;;;;;5046089;28;20055;-75
2022/01/04 00:32:28;;;;;;;2.15;1.33;;;15.40;65.00;;;;;;5052912;28;20052;-74
2022/01/04 00:34:55;;;;;;;3.28;1.42;;;15.60;67.80;;;;;;5052766;28;20076;-74
2022/01/04 00:37:22;;;;;;;3.67;1.65;;;15.50;67.50;;;;;;5052312;28;20077;-74
2022/01/04 00:39:48;;;;;;;3.28;1.38;;;15.50;65.80;;;;;;5052591;28;20159;-74
2022/01/04 00:42:16;;;;;;;3.55;1.50;;;15.60;67.90;;;;;;5052565;28;20145;-75
2022/01/04 00:44:43;;;;;;;5.10;1.50;;;15.40;67.50;;;;;;5052580;28;20135;-75
2022/01/04 00:47:11;;;;;;;4.18;1.73;;;15.40;67.80;;;;;;5036545;28;20133;-75
2022/01/04 00:49:37;;;;;;;2.58;1.30;;;15.40;67.90;;;;;;5032219;28;20060;-75
2022/01/04 00:52:04;;;;;;;2.95;1.60;;;15.50;67.60;;;;;;5048152;28;20439;-75
2022/01/04 00:54:33;;;;;;;3.10;1.50;;;15.40;67.80;;;;;;5040228;28;20554;-75
2022/01/04 00:57:01;;;;;;;2.92;1.50;;;;;;;;;;5032242;28;20479;-74
2022/01/04 00:59:29;;;;;;;2.42;1.30;;;15.50;68.00;;;;;;5038181;28;20077;-75
2022/01/04 01:01:56;;;;;;;3.97;1.52;;;15.40;67.70;;;;;;5044921;28;20125;-75
2022/01/04 01:04:23;;;;;;;2.85;1.50;;;;;;;;;;5041951;28;20136;-74
2022/01/04 01:06:50;;;;;;;2.95;1.40;;;15.50;67.70;;;;;;5031829;28;20132;-75
2022/01/04 01:09:17;;;;;;;2.08;1.33;;;;;;;;;;5032007;28;20084;-75
2022/01/04 01:11:44;;;;;;;3.28;1.70;;;15.50;67.70;;;;;;5032116;28;20132;-75
2022/01/04 01:14:13;;;;;;;3.10;1.58;;;15.40;65.90;;;;;;5032164;28;20085;-75
2022/01/04 01:16:41;;;;;;;2.70;1.40;;;14.90;67.50;;;;;;5031945;28;20053;-75
2022/01/04 01:19:08;;;;;;;3.55;1.35;;;15.40;67.80;;;;;;5031716;28;20084;-74
2022/01/04 01:21:35;;;;;;;4.40;1.50;;;;;;;;;;5033253;28;20064;-74
2022/01/04 01:24:04;;;;;;;2.70;1.20;;;15.40;68.00;;;;;;5031884;28;20132;-75
2022/01/04 01:26:31;;;;;;;5.32;1.58;;;15.00;67.80;;;;;;5037406;28;20072;-75
2022/01/04 01:28:57;;;;;;;3.45;1.40;;;15.60;65.00;;;;;;5043828;28;20077;-75
2022/01/04 01:31:25;;;;;;;2.92;1.40;;;;;;;;;;5031753;28;20550;-75
2022/01/04 01:33:53;;;;;;;2.40;1.30;;;15.30;60.70;;;;;;5031513;28;20136;-74
2022/01/04 01:36:20;;;;;;;4.22;1.55;;;;;;;;;;5032571;28;20419;-74
2022/01/04 01:38:46;;;;;;;4.25;1.52;;;15.40;67.90;;;;;;5031293;28;20132;-74
2022/01/04 01:41:13;;;;;;;2.75;1.33;;;15.30;67.90;;;;;;5031605;28;20136;-75
2022/01/04 01:43:40;;;;;;;2.33;1.35;;;15.00;64.90;;;;;;5031624;28;20132;-74
2022/01/04 01:46:07;;;;;;;2.50;1.50;;;15.10;68.10;;;;;;5031167;28;20136;-74
2022/01/04 01:48:33;;;;;;;2.40;1.23;;;15.30;68.20;;;;;;5031446;28;20601;-75
2022/01/04 01:51:02;;;;;;;2.05;1.20;;;15.20;67.90;;;;;;5031225;28;20558;-75
2022/01/04 01:53:28;;;;;;;3.03;1.23;;;14.80;67.10;;;;;;5032752;28;20136;-74
2022/01/04 01:55:55;;;;;;;2.47;1.30;;;15.20;68.00;;;;;;5050857;28;20076;-74
2022/01/04 01:58:22;;;;;;;3.72;1.55;;;;;;;;;;5051257;28;20506;-74
2022/01/04 02:00:49;;;;;;;2.50;1.25;;;15.00;67.90;;;;;;5050697;28;20083;-74
2022/01/04 02:03:15;;;;;;;3.50;1.50;;;15.30;67.90;;;;;;5051094;28;20584;-74
2022/01/04 02:05:42;;;;;;;2.13;1.17;;;;;;;;;;5050831;28;20076;-74
2022/01/04 02:08:11;;;;;;;2.53;1.10;;;14.90;68.00;;;;;;5051122;28;20131;-74
2022/01/04 02:10:37;;;;;;;4.63;1.60;;;15.20;67.80;;;;;;5043783;28;20511;-75
2022/01/04 02:13:04;;;;;;;3.10;1.42;;;;;;;;;;5032312;28;20132;-75
2022/01/04 02:15:33;;;;;;;4.25;1.40;;;15.20;68.10;;;;;;5030910;28;20128;-75
2022/01/04 02:18:00;;;;;;;3.45;1.40;;;15.20;68.10;;;;;;5039135;28;20414;-75
2022/01/04 02:20:28;;;;;;;4.05;1.60;;;15.20;60.80;;;;;;5039017;28;20682;-74
2022/01/04 02:22:55;;;;;;;4.43;1.85;;;;;;;;;;5031048;28;20144;-74
2022/01/04 02:25:22;;;;;;;3.55;1.45;;;15.20;67.80;;;;;;5030740;28;20410;-75
2022/01/04 02:27:49;;;;;;;2.58;1.27;;;;;;;;;;5032151;28;20574;-75
2022/01/04 02:30:17;;;;;;;2.72;1.40;;;15.20;67.90;;;;;;5030619;28;20443;-75
2022/01/04 02:32:44;;;;;;;2.22;1.20;;;15.20;68.20;;;;;;5030903;28;20491;-75
2022/01/04 02:35:11;;;;;;;2.97;1.40;;;;;;;;;;5030931;28;20132;-75
2022/01/04 02:37:40;;;;;;;3.78;1.20;;;15.10;67.90;;;;;;5030473;28;20128;-75
2022/01/04 02:40:07;;;;;;;3.13;1.30;;;15.10;67.90;;;;;;5031860;28;20057;-75
2022/01/04 02:42:34;;;;;;;2.83;1.30;;;15.10;67.90;;;;;;5030663;28;20406;-74
2022/01/04 02:45:01;;;;;;;3.63;1.58;;;15.10;68.20;;;;;;5030785;28;20135;-75
2022/01/04 02:47:28;;;;;;;3.78;1.30;;;15.10;64.80;;;;;;5030185;28;20049;-74
2022/01/04 02:49:54;;;;;;;2.53;1.40;;;15.10;68.30;;;;;;5031722;28;20437;-75
2022/01/04 02:52:22;;;;;;;2.75;1.30;;;;;;;;;;5030465;28;20129;-74
2022/01/04 02:54:50;;;;;;;3.28;1.45;;;15.10;68.20;;;;;;5044489;28;20128;-75
2022/01/04 02:57:16;;;;;;;3.58;1.48;;;15.20;68.00;;;;;;5050250;28;20084;-74
2022/01/04 02:59:43;;;;;;;2.70;1.20;;;15.10;67.80;;;;;;5050549;28;20132;-75
2022/01/04 03:02:10;;;;;;;3.03;1.50;;;15.10;64.40;;;;;;5050483;28;20136;-74
2022/01/04 03:04:36;;;;;;;2.38;1.40;;;15.10;68.10;;;;;;5050372;28;20045;-75
2022/01/04 03:07:03;;;;;;;2.40;1.30;;;15.40;68.10;;;;;;5050276;28;20077;-75
2022/01/04 03:09:30;;;;;;;3.40;1.30;;;15.20;67.70;;;;;;5050434;28;20084;-74
2022/01/04 03:11:58;;;;;;;2.85;1.30;;;15.20;68.00;;;;;;5047440;28;20143;-75
2022/01/04 03:14:25;;;;;;;2.40;1.10;;;15.00;67.80;;;;;;5045030;28;20140;-74
2022/01/04 03:16:52;;;;;;;2.17;1.25;;;;;;;;;;5031299;28;20160;-74
2022/01/04 03:19:19;;;;;;;2.53;1.35;;;15.10;68.00;;;;;;5030290;28;20081;-74
2022/01/04 03:21:46;;;;;;;2.33;1.30;;;15.10;67.90;;;;;;5030380;28;20557;-75
2022/01/04 03:24:13;;;;;;;1.65;1.00;;;15.30;63.70;;;;;;5030488;28;20137;-75
2022/01/04 03:26:40;;;;;;;3.13;1.40;;;15.10;68.00;;;;;;5030906;28;20132;-75
2022/01/04 03:29:09;;;;;;;2.47;1.25;;;15.20;64.90;;;;;;5052573;28;20084;-75
2022/01/04 03:31:36;;;;;;;3.67;1.30;;;15.20;67.90;;;;;;5053522;28;20135;-74
2022/01/04 03:34:03;;;;;;;2.42;1.20;;;15.00;62.50;;;;;;5053738;28;20132;-74
2022/01/04 03:36:29;;;;;;;3.25;1.35;;;14.80;67.40;;;;;;5041800;28;20128;-74
2022/01/04 03:38:57;;;;;;;3.97;1.58;;;15.20;67.80;;;;;;5034028;28;20057;-75
2022/01/04 03:41:24;;;;;;;2.15;1.27;;;15.30;68.00;;;;;;5033608;28;20418;-75
2022/01/04 03:43:51;;;;;;;3.70;1.35;;;15.00;62.50;;;;;;5034653;28;20136;-75
2022/01/04 03:46:19;;;;;;;2.92;1.48;;;15.20;60.50;;;;;;5053474;28;20055;-75
2022/01/04 03:48:46;;;;;;;3.15;1.35;;;15.20;67.90;;;;;;5053696;28;20147;-74
2022/01/04 03:51:13;;;;;;;3.80;1.45;;;;;;;;;;5053530;28;20140;-73
2022/01/04 03:53:40;;;;;;;2.45;1.27;;;15.40;67.90;;;;;;5053169;28;20080;-74
2022/01/04 03:56:06;;;;;;;2.58;1.40;;;15.20;67.80;;;;;;5053350;28;20417;-74
2022/01/04 03:58:33;;;;;;;2.63;1.48;;;15.30;62.10;;;;;;5053514;28;20458;-74
2022/01/04 04:01:01;;;;;;;2.58;1.40;;;15.30;67.60;;;;;;5052722;28;20520;-75
2022/01/04 04:03:29;;;;;;;2.00;1.20;;;15.00;61.50;;;;;;5033296;28;20080;-74
2022/01/04 04:05:55;;;;;;;3.30;1.33;;;15.40;61.90;;;;;;5033217;28;20513;-74
2022/01/04 04:08:22;;;;;;;2.42;1.20;;;15.30;67.50;;;;;;5033458;28;20136;-74
2022/01/04 04:10:49;;;;;;;2.75;1.33;;;15.40;67.50;;;;;;5033328;28;20143;-75
2022/01/04 04:13:16;;;;;;;2.85;1.40;;;;;;;;;;5033330;28;20136;-74
2022/01/04 04:15:44;;;;;;;1.83;1.10;;;15.30;67.80;;;;;;5033053;28;20136;-74
2022/01/04 04:18:11;;;;;;;4.25;1.42;;;15.30;67.70;;;;;;5039170;28;20094;-75
2022/01/04 04:20:39;;;;;;;2.00;1.30;;;15.30;60.30;;;;;;5053024;28;20144;-74
2022/01/04 04:23:06;;;;;;;2.90;1.30;;;;;;;;;;5052761;28;20144;-74
2022/01/04 04:25:33;;;;;;;1.85;1.20;;;15.30;67.50;;;;;;5052758;28;20553;-75
2022/01/04 04:28:00;;;;;;;3.28;1.20;;;;;;;;;;5052702;28;20140;-73
2022/01/04 04:30:27;;;;;;;2.55;1.30;;;14.90;67.50;;;;;;5052817;28;20137;-74
2022/01/04 04:32:53;;;;;;;3.60;1.42;;;15.30;67.80;;;;;;5053755;28;20099;-75
2022/01/04 04:35:20;;;;;;;2.90;1.50;;;;;;;;;;5045585;28;20538;-74
2022/01/04 04:37:49;;;;;;;2.70;1.30;;;15.30;67.50;;;;;;5031980;28;20092;-74
2022/01/04 04:40:16;;;;;;;2.85;1.33;;;15.20;67.50;;;;;;5032258;28;20509;-74
2022/01/04 04:42:43;;;;;;;2.20;1.20;;;15.20;67.50;;;;;;5037961;28;20060;-75
2022/01/04 04:45:10;;;;;;;2.63;1.13;;;15.30;67.50;;;;;;5051342;28;20127;-75
2022/01/04 04:47:37;;;;;;;3.28;1.40;;;15.40;66.30;;;;;;5045709;28;20080;-74
2022/01/04 04:50:05;;;;;;;2.88;1.27;;;15.30;67.50;;;;;;5035282;28;20556;-75
2022/01/04 04:52:31;;;;;;;2.47;1.27;;;15.30;67.50;;;;;;5041398;28;20136;-75
2022/01/04 04:54:59;;;;;;;2.72;1.45;;;15.50;67.70;;;;;;5052220;28;20503;-75
2022/01/04 04:57:26;;;;;;;2.45;1.17;;;15.30;67.50;;;;;;5051274;28;20124;-75
2022/01/04 04:59:53;;;;;;;2.28;1.30;;;15.30;64.60;;;;;;5052502;28;20132;-74
2022/01/04 05:02:21;;;;;;;3.50;1.40;;;;;;;;;;5052322;28;20053;-74
2022/01/04 05:04:48;;;;;;;2.22;1.23;;;15.20;67.70;;;;;;5051852;28;20084;-75
2022/01/04 05:07:15;;;;;;;2.67;1.17;;;;;;;;;;5051875;28;20502;-74
2022/01/04 05:09:42;;;;;;;3.63;1.50;;;15.20;67.70;;;;;;5038758;28;20471;-75
2022/01/04 05:12:10;;;;;;;3.35;1.60;;;14.90;65.00;;;;;;5049682;28;20140;-75
2022/01/04 05:14:44;;;;;;;2.83;1.35;;;;;;;;;;5031548;28;20132;-74
2022/01/04 05:17:11;;;;;;;3.17;1.30;;;15.40;61.30;;;;;;5031887;28;20103;-74
2022/01/04 05:19:38;;;;;;;2.30;1.10;;;15.30;67.50;;;;;;5032047;28;20162;-75
2022/01/04 05:22:07;;;;;;;2.55;1.48;;;15.30;67.70;;;;;;5032041;28;20148;-74
2022/01/04 05:24:34;;;;;;;3.85;1.30;;;;;;;;;;5031853;28;20551;-74
2022/01/04 05:27:00;;;;;;;2.75;1.30;;;15.30;67.40;;;;;;5033915;28;20057;-74
2022/01/04 05:29:28;;;;;;;3.55;1.48;;;15.30;60.20;;;;;;5032812;28;20491;-75
2022/01/04 05:31:56;;;;;;;2.40;1.45;;;;;;;;;;5032863;28;20478;-74
2022/01/04 05:34:23;;;;;;;1.98;1.30;;;15.30;67.50;;;;;;5032960;28;20124;-74
2022/01/04 05:36:50;;;;;;;1.75;1.30;;;15.40;67.50;;;;;;5031084;28;20056;-74
2022/01/04 05:39:17;;;;;;;2.97;1.38;;;14.90;67.00;;;;;;5032842;28;20077;-74
2022/01/04 05:41:44;;;;;;;3.05;1.50;;;;;;;;;;5032551;28;20133;-74
2022/01/04 05:44:11;;;;;;;2.08;1.45;;;15.20;67.40;;;;;;5047684;28;20049;-74
2022/01/04 05:46:39;;;;;;;3.38;1.38;;;15.00;60.00;;;;;;5052155;28;20049;-74
2022/01/04 05:49:06;;;;;;;3.20;1.60;;;15.40;61.80;;;;;;5042221;28;20483;-74
2022/01/04 05:51:33;;;;;;;3.63;1.50;;;15.40;67.30;;;;;;5032730;28;20081;-74
2022/01/04 05:53:59;;;;;;;3.85;1.40;;;15.50;67.10;;;;;;5031510;28;20136;-74
2022/01/04 05:56:26;;;;;;;3.55;1.38;;;15.50;61.00;;;;;;5031188;28;20085;-74
2022/01/04 05:58:53;;;;;;;1.85;1.30;;;15.40;67.30;;;;;;5032347;28;20081;-74
2022/01/04 06:01:20;;;;;;;2.03;1.30;;;;;;;;;;5045596;28;20084;-75
2022/01/04 06:03:51;;;;;;;2.63;1.33;;;15.00;66.70;;;;;;5052221;28;20131;-74
2022/01/04 06:06:17;;;;;;;2.08;1.38;;;14.90;66.60;;;;;;5051091;28;20060;-74
2022/01/04 06:08:45;;;;;;;1.45;1.20;;;15.10;66.70;;;;;;5052155;28;20131;-74
2022/01/04 06:11:30;;;;;;;2.75;1.50;;;;;;;;;;5052029;28;20405;-74
2022/01/04 06:16:42;;;;;;;3.03;1.40;;;;;;;;;;5051831;28;20041;-75
2022/01/04 06:19:10;;;;;;;3.65;1.58;;;15.40;60.70;;;;;;5033174;28;20049;-74
2022/01/04 06:21:37;;;;;;;2.58;1.33;;;15.40;62.70;;;;;;5030799;28;20137;-74
2022/01/04 06:24:04;;;;;;;2.50;1.40;;;15.50;66.90;;;;;;5032051;28;20084;-74
2022/01/04 06:26:31;;;;;;;2.30;1.30;;;;;;;;;;5031699;28;20132;-74
2022/01/04 06:28:58;;;;;;;2.88;1.40;;;15.60;67.10;;;;;;5031085;28;20160;-74
2022/01/04 06:31:25;;;;;;;2.28;1.40;;;15.50;59.80;;;;;;5032020;28;20426;-75
2022/01/04 06:33:52;;;;;;;2.22;1.40;;;15.00;66.60;;;;;;5032021;28;20175;-74
2022/01/04 06:36:20;;;;;;;3.42;1.50;;;15.50;59.70;;;;;;5031737;28;20150;-75
2022/01/04 06:38:47;;;;;;;2.08;1.50;;;;;;;;;;5031906;28;20085;-75
2022/01/04 06:41:14;;;;;;;2.58;1.50;;;15.00;66.40;;;;;;5030766;28;20136;-74
2022/01/04 06:43:41;;;;;;;1.90;1.27;;;;;;;;;;5032135;28;20473;-75
2022/01/04 06:46:11;;;;;;;3.33;1.48;;;15.30;66.80;;;;;;5030185;28;20137;-74
2022/01/04 06:48:38;;;;;;;1.88;1.25;;;;;;;;;;5030422;28;20045;-74
2022/01/04 06:51:04;;;;;;;1.92;1.15;;;15.40;66.60;;;;;;5038671;28;20490;-74
2022/01/04 06:53:33;;;;;;;2.17;1.30;;;15.60;66.70;;;;;;5050703;28;20132;-75
2022/01/04 06:55:59;;;;;;;2.63;1.50;;;15.60;67.00;;;;;;5050417;28;20445;-74
2022/01/04 06:58:26;;;;;;;1.52;1.30;;;15.40;64.60;;;;;;5050527;28;20136;-74
2022/01/04 07:00:53;;;;;;;1.42;1.15;;;15.60;66.70;;;;;;5050285;28;20140;-74
2022/01/04 07:03:19;;;;;;;3.88;1.55;;;15.00;66.30;;;;;;5054511;28;20615;-74
2022/01/04 07:05:46;;;;;;;2.38;1.80;;;15.40;64.10;;;;;;5043908;28;20136;-75
2022/01/04 07:08:13;;;;;;;2.45;1.50;;;15.60;66.80;;;;;;5034371;28;20053;-74
2022/01/04 07:10:41;;;;;;;1.63;1.25;;;15.50;66.50;;;;;;5034397;28;20137;-74
2022/01/04 07:13:08;;;;;;;1.83;1.30;;;15.60;66.90;;;;;;5034267;28;20084;-75
2022/01/04 07:15:34;;;;;;;3.72;1.63;;;15.60;62.00;;;;;;5034177;28;20128;-74
2022/01/04 07:18:01;;;;;;;2.30;1.50;;;15.70;66.70;;;;;;5034462;28;20053;-75
2022/01/04 07:20:28;;;;;;;3.15;1.60;;;15.00;66.30;;;;;;5034382;28;20103;-75
2022/01/04 07:22:55;;;;;;;2.30;1.45;;;15.80;63.70;;;;;;5035022;28;20128;-74
2022/01/04 07:25:22;;;;;;;1.63;1.30;;;;;;;;;;5034123;28;20132;-74
2022/01/04 07:27:51;;;;;;;1.67;1.30;;;15.60;59.70;;;;;;5034040;28;20215;-74
2022/01/04 07:30:18;;;;;;;1.70;1.20;;;15.60;66.90;;;;;;5037105;28;20554;-73
2022/01/04 07:32:45;;;;;;;3.03;1.30;;;;;;;;;;5053636;28;20163;-72
2022/01/04 07:35:11;;;;;;;2.72;1.40;;;15.60;66.80;;;;;;5054646;28;20108;-72
2022/01/04 07:37:39;;;;;;;1.95;1.30;;;;;;;;;;5049585;28;20050;-73
2022/01/04 07:40:07;;;;;;;1.75;1.40;;;15.50;66.50;;;;;;5035056;28;20135;-75
2022/01/04 07:42:34;;;;;;;2.53;1.40;;;15.70;66.90;;;;;;5033697;28;20049;-75
2022/01/04 07:45:02;;;;;;;2.78;1.60;;;15.00;66.40;;;;;;5033689;28;20136;-76
2022/01/04 07:47:29;;;;;;;4.50;1.60;;;15.60;62.00;;;;;;5033354;28;20053;-75
2022/01/04 07:49:56;;;;;;;4.97;1.73;;;15.70;66.80;;;;;;5033412;28;20061;-73
2022/01/04 07:52:23;;;;;;;3.97;1.80;;;;;;;;;;5033501;28;20099;-73
2022/01/04 07:54:50;;;;;;;3.90;1.80;;;15.80;66.90;;;;;;5033395;28;20140;-73
2022/01/04 07:57:17;;;;;;;3.95;1.85;;;15.50;66.90;;;;;;5034328;28;20498;-73
2022/01/04 07:59:43;;;;;;;4.30;1.88;;;15.80;62.40;;;;;;5034509;28;20128;-73
2022/01/04 08:02:11;;;;;;;6.00;1.50;;;15.70;66.70;;;;;;5033532;28;20481;-73
2022/01/04 08:04:38;;;;;;;4.35;1.70;;;15.40;67.00;;;;;;5033496;28;20136;-74
2022/01/04 08:07:05;;;;;;;3.35;1.88;;;15.50;67.20;;;;;;5032922;28;20053;-74
2022/01/04 08:09:32;;;;;;;5.15;1.80;;;15.80;61.90;;;;;;5033347;28;20481;-74
2022/01/04 08:11:59;;;;;;;5.93;2.30;;;16.00;67.40;;;;;;5032950;28;20141;-74
2022/01/04 08:14:26;;;;;;;5.65;2.20;;;;;;;;;;5046951;28;20465;-74
2022/01/04 08:16:53;;;;;;;3.88;1.60;;;16.00;67.00;;;;;;5052998;28;20132;-74
2022/01/04 08:19:22;;;;;;;3.67;1.60;;;16.00;66.90;;;;;;5053167;28;20052;-74
2022/01/04 08:21:48;;;;;;;3.55;1.77;;;15.90;67.10;;;;;;5051971;28;20132;-74
2022/01/04 08:24:15;;;;;;;4.55;1.50;;;16.30;67.30;;;;;;5052496;28;20049;-74
2022/01/04 08:26:42;;;;;;;5.93;2.17;;;;;;;;;;5052114;28;20136;-74
2022/01/04 08:29:09;;;;;;;3.15;1.50;;;16.00;66.80;;;;;;5051790;28;20128;-74
2022/01/04 08:31:36;;;;;;;3.70;1.60;;;16.30;67.10;;;;;;5052131;28;20136;-74
2022/01/04 08:34:03;;;;;;;3.55;1.92;;;15.50;66.60;;;;;;5052360;28;20137;-74
2022/01/04 08:36:31;;;;;;;2.65;1.50;;;16.20;67.00;;;;;;5053210;28;20124;-74
2022/01/04 08:38:59;;;;;;;2.40;1.45;;;;;;;;;;5052227;28;20051;-74
2022/01/04 08:41:25;;;;;;;3.38;1.63;;;16.30;66.70;;;;;;5050083;28;20079;-74
2022/01/04 08:43:52;;;;;;;3.08;1.58;;;16.20;66.80;;;;;;5048066;28;20136;-74
2022/01/04 08:46:19;;;;;;;3.22;1.70;;;16.20;63.70;;;;;;5048707;28;20136;-74
2022/01/04 08:48:46;;;;;;;2.58;1.50;;;16.40;66.60;;;;;;5050409;28;20045;-74
2022/01/04 08:51:13;;;;;;;3.47;1.60;;;16.20;60.20;;;;;;5051883;28;20080;-74
2022/01/04 08:53:41;;;;;;;2.10;1.48;;;16.40;66.60;;;;;;5051756;28;20140;-74
2022/01/04 08:56:08;;;;;;;3.72;1.60;;;15.90;66.30;;;;;;5052167;28;20127;-74
2022/01/04 08:58:34;;;;;;;3.38;1.63;;;17.30;67.00;;;;;;5048727;28;20124;-74
2022/01/04 09:01:02;;;;;;;3.28;1.40;;;15.60;62.60;;;;;;5050616;28;20518;-73
2022/01/04 09:03:30;;;;;;;3.63;1.50;;;;;;;;;;5052071;28;20063;-72
2022/01/04 09:05:57;;;;;;;4.30;1.80;;;;;;;;;;5051790;28;20048;-73
2022/01/04 09:08:24;;;;;;;3.88;1.63;;;16.10;66.20;;;;;;5052013;28;20128;-73
2022/01/04 09:10:52;;;;;;;2.75;1.40;;;15.80;66.20;;;;;;5051581;28;20053;-74
2022/01/04 09:13:21;;;;;;;2.40;1.70;;;16.40;66.50;;;;;;5032309;28;20136;-74
2022/01/04 09:18:43;;;;;;;2.88;1.80;;;16.40;66.20;;;;;;5032792;28;20041;-74
2022/01/04 09:18:43;;;;;;;2.72;1.75;;;;;;;;;;5032017;28;20049;-74
2022/01/04 09:21:10;;;;;;;3.42;1.50;;;16.20;63.20;;;;;;5032076;28;20053;-74
2022/01/04 09:23:37;;;;;;;4.10;1.77;;;16.30;61.10;;;;;;5036198;28;20504;-75
2022/01/04 09:26:05;;;;;;;4.70;1.73;;;16.90;60.00;;;;;;5051197;28;20088;-74
2022/01/04 09:28:32;;;;;;;5.63;1.70;;;16.40;61.30;;;;;;5042864;28;20505;-74
2022/01/04 09:30:59;;;;;;;2.42;1.30;;;17.30;67.20;;;;;;5031835;28;20053;-72
2022/01/04 09:33:25;;;;;;;2.90;1.40;;;17.50;67.10;;;;;;5031582;28;20128;-74
2022/01/04 09:35:52;;;;;;;3.50;1.33;;;15.70;62.60;;;;;;5031556;28;20546;-75
2022/01/04 09:38:19;;;;;;;2.35;1.35;;;15.80;66.20;;;;;;5031746;28;20132;-75
2022/01/04 09:40:46;;;;;;;4.22;1.65;;;17.40;66.70;;;;;;5031476;28;20144;-75
2022/01/04 09:43:14;;;;;;;7.80;1.67;;;15.80;65.60;;;;;;5031670;28;20057;-75
2022/01/04 09:45:41;;;;;;;6.32;1.75;;;16.30;66.30;;;;;;5032554;28;20055;-75
2022/01/04 09:48:08;;;;;;;7.38;1.60;;;16.60;66.30;;;;;;5031279;28;20059;-74
2022/01/04 09:50:35;;;;;;;3.22;1.30;;;15.80;62.50;;;;;;5031119;28;20482;-74
2022/01/04 09:53:02;;;;;;;3.90;1.48;;;;;;;;;;5031286;28;20140;-74
2022/01/04 09:55:29;;;;;;;6.57;1.80;;;16.80;66.20;;;;;;5031236;28;20084;-75
2022/01/04 09:57:56;;;;;;;5.38;1.83;;;17.50;66.50;;;;;;5031218;28;20095;-75
2022/01/04 10:00:24;;;;;;;3.95;1.63;;;16.80;60.90;;;;;;5034136;28;20135;-74
2022/01/04 10:02:51;;;;;;;3.50;1.50;;;16.20;60.30;;;;;;5050084;28;20554;-74
2022/01/04 10:05:19;;;;;;;3.13;1.50;;;16.70;65.80;;;;;;5050649;28;20056;-75
2022/01/04 10:07:46;;;;;;;2.55;1.50;;;16.40;65.70;;;;;;5050747;28;20131;-75
2022/01/04 10:10:13;;;;;;;2.45;1.48;;;16.70;62.00;;;;;;5051147;28;20084;-74
2022/01/04 10:12:51;;;;;;;4.07;1.70;;;16.20;65.80;;;;;;5044287;28;20136;-74
2022/01/04 10:15:37;;;;;;;3.28;1.50;;;15.80;65.30;;;;;;5049381;28;20123;-74
2022/01/04 10:18:05;;;;;;;2.97;1.20;;;16.80;66.00;;;;;;5049293;28;20080;-74
2022/01/04 10:20:33;;;;;;;2.67;1.40;;;16.00;62.20;;;;;;5051525;28;20077;-74
2022/01/04 10:23:10;;;;;;;2.17;1.33;;;16.50;65.80;;;;;;5051586;28;20048;-74
2022/01/04 10:25:37;;;;;;;2.03;1.35;;;16.60;65.90;;;;;;5047568;28;20053;-74
2022/01/04 10:28:04;;;;;;;3.65;1.23;;;16.60;64.70;;;;;;5051225;28;20142;-74
2022/01/04 10:30:33;;;;;;;2.92;1.40;;;16.50;58.80;;;;;;5051460;28;20102;-75
2022/01/04 10:33:00;;;;;;;2.42;1.30;;;16.70;60.90;;;;;;5051610;28;20076;-74
2022/01/04 10:35:30;;;;;;;2.40;1.15;;;16.50;58.70;;;;;;5050928;28;20115;-75
2022/01/04 10:37:58;;;;;;;3.10;1.13;;;16.60;65.40;;;;;;5048512;28;20461;-74
2022/01/04 10:40:28;;;;;;;2.50;1.10;;;15.90;65.30;;;;;;5050702;28;20132;-74
2022/01/04 10:42:55;;;;;;;3.20;1.40;;;16.50;65.70;;;;;;5051506;28;20147;-74
2022/01/04 10:45:24;;;;;;;2.70;1.13;;;16.00;58.70;;;;;;5050061;28;20131;-74
2022/01/04 10:47:52;;;;;;;2.30;0.95;;;15.80;65.30;;;;;;5050424;28;20128;-74
2022/01/04 10:50:30;;;;;;;2.65;1.20;;;16.40;63.40;;;;;;5051270;28;20049;-74
2022/01/04 10:52:58;;;;;;;3.30;1.30;;;16.20;65.20;;;;;;5050777;28;20049;-73
2022/01/04 10:55:25;;;;;;;3.30;1.10;;;15.60;64.80;;;;;;5035790;28;20132;-73
2022/01/04 10:57:51;;;;;;;4.13;1.10;;;17.20;65.60;;;;;;5031659;28;20125;-71
2022/01/04 11:00:20;;;;;;;2.08;0.90;;;16.70;60.40;;;;;;5030426;28;20402;-72
2022/01/04 11:02:46;;;;;;;2.13;1.00;;;16.40;65.40;;;;;;5030330;28;20057;-70
2022/01/04 11:05:15;;;;;;;3.35;1.25;;;16.60;65.30;;;;;;5036809;28;20486;-72
2022/01/04 11:07:58;;;;;;;5.10;1.17;;;16.60;65.70;;;;;;5048137;28;20127;-71
2022/01/04 11:10:25;;;;;;;5.25;1.10;;;17.10;65.70;;;;;;5043149;28;20140;-71
2022/01/04 11:12:52;;;;;;;5.47;1.40;;;15.70;64.90;;;;;;5030192;28;20133;-72
2022/01/04 11:15:19;;;;;;;4.80;1.30;;;16.80;60.50;;;;;;5030171;28;20156;-73
2022/01/04 11:17:45;;;;;;;5.40;1.20;;;16.60;65.60;;;;;;5031066;28;20089;-72
2022/01/04 11:20:12;;;;;;;3.95;1.52;;;16.50;65.50;;;;;;5050014;28;20132;-72
2022/01/04 11:22:41;;;;;;;3.35;1.00;;;16.80;64.80;;;;;;5050447;28;20144;-75
2022/01/04 11:25:08;;;;;;;2.72;1.10;;;16.60;65.20;;;;;;5050123;28;20083;-75
2022/01/04 11:27:36;;;;;;;2.60;1.20;;;16.90;65.00;;;;;;5048741;28;20524;-76
2022/01/04 11:30:04;;;;;;;2.78;1.42;;;16.70;59.20;;;;;;5049871;28;20056;-75
2022/01/04 11:32:32;;;;;;;6.75;1.35;;;;;;;;;;5050109;28;20140;-76
2022/01/04 11:35:03;;;;;;;3.55;1.20;;;16.80;58.40;;;;;;5047764;28;20505;-76
2022/01/04 11:37:30;;;;;;;3.88;1.25;;;16.70;65.40;;;;;;5052188;28;20056;-76
2022/01/04 11:39:58;;;;;;;4.07;1.10;;;17.70;59.40;;;;;;5053013;28;20072;-76
2022/01/04 11:42:38;;;;;;;3.78;1.10;;;16.80;59.80;;;;;;5053026;28;20045;-76
2022/01/04 11:45:07;;;;;;;1.88;1.20;;;15.90;59.20;;;;;;5051834;28;20071;-76
2022/01/04 11:47:37;;;;;;;1.92;1.00;;;16.70;65.40;;;;;;5053311;28;20085;-76
2022/01/04 11:50:10;;;;;;;4.60;1.40;;;16.80;58.30;;;;;;5055081;28;20086;-76
2022/01/04 11:52:38;;;;;;;2.03;1.05;;;15.80;64.50;;;;;;5048129;28;20079;-76
2022/01/04 11:55:23;;;;;;;4.53;1.15;;;16.90;65.30;;;;;;5053907;28;20060;-75
2022/01/04 11:57:50;;;;;;;5.30;1.08;;;16.80;58.70;;;;;;5049033;28;20087;-75
2022/01/04 12:00:24;;;;;;;4.15;1.25;;;17.00;65.10;;;;;;5054142;28;20132;-75
2022/01/04 12:03:02;;;;;;;2.47;1.17;;;17.10;65.80;;;;;;5053546;28;20052;-72
2022/01/04 12:05:28;;;;;;;3.85;1.00;;;17.50;65.60;;;;;;5054182;28;20390;-71
2022/01/04 12:07:55;;;;;;;4.68;1.20;;;17.00;65.10;;;;;;5053224;28;20137;-72
2022/01/04 12:10:38;;;;;;;2.22;1.10;;;16.90;63.30;;;;;;5050967;28;20456;-72
2022/01/04 12:13:14;;;;;;;2.22;1.10;;;16.00;64.90;;;;;;5053431;28;20135;-74
2022/01/04 12:15:58;;;;;;;2.58;1.05;;;17.10;65.50;;;;;;5044191;28;20838;-74
2022/01/04 12:19:00;;;;;;;2.00;1.00;;;15.90;64.70;;;;;;5047138;28;20131;-75
2022/01/04 12:21:38;;;;;;;2.33;1.17;;;17.00;65.50;;;;;;5048765;28;20052;-74
2022/01/04 12:24:05;;;;;;;2.40;1.20;;;16.90;65.70;;;;;;5052851;28;20132;-74
2022/01/04 12:26:34;;;;;;;3.55;1.27;;;16.80;58.90;;;;;;5052958;28;20148;-75
2022/01/04 12:29:20;;;;;;;3.60;1.27;;;16.80;58.90;;;;;;5052925;28;20099;-74
2022/01/04 12:31:48;;;;;;;3.45;1.27;;;17.00;65.60;;;;;;5052357;28;20055;-73
2022/01/04 12:34:50;;;;;;;3.53;1.13;;;16.90;59.60;;;;;;5052917;28;20049;-74
2022/01/04 12:37:18;;;;;;;3.05;1.27;;;16.80;58.80;;;;;;5052774;28;20060;-74
2022/01/04 12:39:45;;;;;;;3.10;1.30;;;17.50;63.70;;;;;;5051302;28;20091;-74
2022/01/04 12:42:15;;;;;;;1.75;0.98;;;16.10;65.10;;;;;;5049320;28;20210;-74
2022/01/04 12:44:42;;;;;;;1.80;1.20;;;16.70;65.70;;;;;;5032950;28;20064;-74
2022/01/04 12:47:09;;;;;;;6.03;1.20;;;16.90;65.50;;;;;;5032645;28;20140;-74
2022/01/04 12:49:37;;;;;;;3.90;1.13;;;16.30;65.40;;;;;;5033598;28;20132;-74
2022/01/04 12:52:07;;;;;;;2.67;1.08;;;16.80;65.70;;;;;;5032689;28;20045;-74
2022/01/04 12:54:34;;;;;;;2.47;1.15;;;16.80;65.60;;;;;;5032259;28;20136;-74
2022/01/04 12:57:02;;;;;;;2.58;1.10;;;16.70;60.40;;;;;;5032387;28;20469;-74
2022/01/04 12:59:33;;;;;;;2.88;1.10;;;16.50;65.20;;;;;;5040396;28;20061;-74
2022/01/04 13:02:01;;;;;;;1.77;1.10;;;17.20;65.50;;;;;;5038333;28;20510;-75
2022/01/04 13:04:32;;;;;;;4.35;1.00;;;16.80;60.80;;;;;;5032206;28;20128;-74
2022/01/04 13:06:58;;;;;;;2.72;1.00;;;16.50;65.20;;;;;;5032140;28;20053;-74
2022/01/04 13:09:26;;;;;;;2.28;1.00;;;16.50;58.50;;;;;;5032205;28;20132;-75